»·PEaware :: TPX89 KBFL-KSNA

TPX89 :: KBFL-KSNA

FLIGHT INFORMATION

Flight Status: Arrived
Operator: ATP Experience
More flights by this operator :: More flights under this callsign
Pilot: Joe C. (3077)
Aircraft: BOEING 737-800
(B738)
More flights by this aircraft type
Origin: KBFL Meadows
United States
Destination: KSNA John Wayne-Orange Co
United States
More flights between these airports :: More routes between these airports
Route: +LHS V459 SLI
File this flight plan on PilotEdge
Remarks: OPERATED BY THE ATP EXPERIENCE
Altitude:
(Current/Filed)
25,000ft
Speed:
(Current/Filed)
430kts
Departed: 26-Jul-20 10:18 PM
Arrived: 26-Jul-20 10:59 PM
Distance/Time
Traveled:
121nm/0:40
Distance/Time
To Go:
Arrived

Flight Plot

Page will automatically refresh every two minutes.


Map Options




Map Legend


Flown Route
Filed Route
Departure Airport
Arrival Airport
Navaid (VOR, NDB)
Fix

Horizontal Profiles

Position Reports

Time Latitude Longitude Heading Altitude Ground
Speed
26-Jul-20 21:54 35.435818 -119.052044 180 508ft 0kts
26-Jul-20 21:55 35.435818 -119.052044 180 508ft 0kts
26-Jul-20 21:56 35.435818 -119.052044 180 508ft 0kts
26-Jul-20 21:57 35.435818 -119.052044 180 508ft 0kts
26-Jul-20 21:58 35.435818 -119.052044 180 508ft 0kts
26-Jul-20 21:59 35.435818 -119.052044 180 508ft 0kts
26-Jul-20 22:00 35.435818 -119.052044 180 508ft 0kts
26-Jul-20 22:01 35.435818 -119.052044 180 508ft 0kts
26-Jul-20 22:02 35.435818 -119.052044 180 508ft 0kts
26-Jul-20 22:03 35.435818 -119.052044 180 508ft 0kts
26-Jul-20 22:04 35.435818 -119.052044 180 508ft 0kts
26-Jul-20 22:05 35.435818 -119.052044 180 508ft 0kts
26-Jul-20 22:06 35.435818 -119.052044 180 508ft 0kts
26-Jul-20 22:07 35.435818 -119.052044 180 508ft 0kts
26-Jul-20 22:08 35.435818 -119.052044 180 508ft 0kts
26-Jul-20 22:09 35.435818 -119.052044 180 508ft 0kts
26-Jul-20 22:10 35.435818 -119.052044 180 508ft 0kts
26-Jul-20 22:11 35.435818 -119.052044 180 508ft 0kts
26-Jul-20 22:12 35.435760 -119.052043 179 508ft 0kts
26-Jul-20 22:13 35.435568 -119.052038 185 507ft 0kts
26-Jul-20 22:14 35.436408 -119.054673 221 503ft 0kts
26-Jul-20 22:15 35.436275 -119.054820 222 502ft 0kts
26-Jul-20 22:16 35.434160 -119.054349 135 496ft 28kts
26-Jul-20 22:18 35.427376 -119.046179 135 488ft 53kts
26-Jul-20 22:19 35.425990 -119.044642 181 485ft 0kts
26-Jul-20 22:20 35.427358 -119.048405 314 484ft 61kts
26-Jul-20 22:21 35.456145 -119.085447 310 2484ft 188kts
26-Jul-20 22:22 35.469204 -119.103089 311 2788ft 231kts
26-Jul-20 22:23 35.515860 -119.166780 297 5423ft 272kts
26-Jul-20 22:24 35.502150 -119.249599 215 8571ft 278kts
26-Jul-20 22:25 35.430901 -119.246975 147 10841ft 315kts
26-Jul-20 22:26 35.358734 -119.182375 144 12981ft 339kts
26-Jul-20 22:27 35.280146 -119.111347 144 15124ft 382kts
26-Jul-20 22:28 35.191476 -119.031396 144 17567ft 408kts
26-Jul-20 22:29 35.100354 -118.949440 145 20162ft 422kts
26-Jul-20 22:30 35.007517 -118.866169 145 22685ft 432kts
26-Jul-20 22:31 34.911716 -118.780470 145 23168ft 429kts
26-Jul-20 22:32 34.818256 -118.697112 145 23159ft 429kts
26-Jul-20 22:33 34.725978 -118.615039 144 20454ft 414kts
26-Jul-20 22:33 34.647722 -118.556562 152 17145ft 397kts
26-Jul-20 22:35 34.537249 -118.491470 153 12441ft 371kts
26-Jul-20 22:36 34.458630 -118.445562 152 11750ft 282kts
26-Jul-20 22:36 34.402451 -118.412754 152 10504ft 274kts
26-Jul-20 22:37 34.336046 -118.374073 152 9045ft 268kts
26-Jul-20 22:39 34.266876 -118.333849 153 8972ft 269kts
26-Jul-20 22:39 34.216754 -118.304745 153 8972ft 269kts
26-Jul-20 22:40 34.154560 -118.268730 153 8973ft 268kts
26-Jul-20 22:41 34.097070 -118.235456 153 8974ft 267kts
26-Jul-20 22:42 34.039996 -118.202461 154 8977ft 267kts
26-Jul-20 22:43 33.979413 -118.169427 172 8957ft 265kts
26-Jul-20 22:44 33.914278 -118.182275 192 7624ft 262kts
26-Jul-20 22:45 33.848229 -118.199315 191 6989ft 260kts
26-Jul-20 22:46 33.779888 -118.186785 134 6176ft 263kts
26-Jul-20 22:47 33.727788 -118.111082 131 4993ft 263kts
26-Jul-20 22:48 33.701893 -118.035515 61 5013ft 273kts
26-Jul-20 22:49 33.753904 -117.989176 31 4990ft 275kts
26-Jul-20 22:50 33.809275 -117.948377 31 4989ft 275kts
26-Jul-20 22:51 33.847304 -117.890101 61 4583ft 241kts
26-Jul-20 22:52 33.876561 -117.819293 98 4036ft 211kts
26-Jul-20 22:53 33.838502 -117.772146 163 3502ft 186kts
26-Jul-20 22:54 33.792495 -117.790286 211 2659ft 193kts
26-Jul-20 22:55 33.755524 -117.818455 207 1694ft 140kts
26-Jul-20 22:56 33.721612 -117.839800 207 910ft 139kts
26-Jul-20 22:57 33.686074 -117.862239 207 194ft 138kts
26-Jul-20 22:58 33.667837 -117.873301 138 64ft 1kts
26-Jul-20 22:59 33.669081 -117.870931 40 64ft 23kts
26-Jul-20 23:00 33.674972 -117.865433 78 64ft 10kts
26-Jul-20 23:01 33.674978 -117.865194 97 64ft 0kts
26-Jul-20 23:02 33.674978 -117.865194 97 64ft 0kts
26-Jul-20 23:03 33.674978 -117.865194 97 64ft 0kts
26-Jul-20 23:04 33.674978 -117.865194 97 64ft 0kts
26-Jul-20 23:05 33.674978 -117.865194 97 64ft 0kts
26-Jul-20 23:06 33.674978 -117.865194 97 64ft 0kts
26-Jul-20 23:07 33.674978 -117.865194 97 64ft 0kts
26-Jul-20 23:08 33.674978 -117.865194 97 64ft 0kts
26-Jul-20 23:09 33.674978 -117.865194 97 64ft 0kts
26-Jul-20 23:10 33.674978 -117.865194 97 64ft 0kts
26-Jul-20 23:11 33.674978 -117.865194 97 64ft 0kts
26-Jul-20 23:12 33.674978 -117.865194 97 64ft 0kts

Navigation Log

Ident Type
Flight plan parsing failed, navigation log unavailable